AirNav   Air Wisconsin Up To $57,000 Bonus
 
 1509 users online  

GA36 Readdick Field Airport
Kingsland, Georgia, USA

GOING TO KINGSLAND?


FAA INFORMATION EFFECTIVE 30 DECEMBER 2021

Location

FAA Identifier: GA36
Lat/Long: 30-46-00.8050N 081-42-59.9500W
30-46.013417N 081-42.999167W
30.7668903,-81.7166528
(estimated)
Elevation: 20 ft. / 6 m (estimated)
From city: 2 miles SW of KINGSLAND, GA
Time zone: UTC -5 (UTC -4 during Daylight Saving Time)
Zip code: 31548

Airport Operations

Airport use: Private use. Permission required prior to landing
Activation date: 02/2020
Control tower: no
ARTCC: JACKSONVILLE CENTER
FSS: MACON FLIGHT SERVICE STATION
Attendance: 
Segmented circle: no

Airport Communications

CTAF: 122.9
WX AWOS-3 at FHB (16 nm SE): 118.075 (904-277-7323)
WX ASOS at JAX (16 nm S): 125.85 (904-741-4304)

Nearby radio navigation aids

VOR radial/distance  VOR name  Freq  Var
SSIr223/22.0BRUNSWICK VORTAC109.8004W
CRGr340/27.8CRAIG VORTAC114.5003W

Airport Services

Runway Information

Runway 18/36

Dimensions: 3400 x 75 ft. / 1036 x 23 m
Surface: turf
RUNWAY 18  RUNWAY 36
Latitude: 30-46.293500N30-45.733333N
Longitude: 081-42.983333W081-43.015000W
Elevation: 20.0 ft.20.0 ft.
Traffic pattern: leftleft
Runway heading: 183 true003 true

Airport Ownership and Management from official FAA records

Ownership: Privately-owned
Owner: JOYCE READDICK
450 ESCOTT RD
KINGSLAND, GA 31548
Phone 904-294-1290
Manager: ROCKY READDICK
450 ESCOTT RD
KINGSLAND, GA 31548
Phone 904-294-1290

Airport Operational Statistics

Aircraft based on the field: 4
Single engine airplanes: 1
Multi engine airplanes: 1
Helicopters: 1
Gliders airplanes: 1
    

Instrument Procedures

There are no published instrument procedures at GA36.

Some nearby airports with instrument procedures:

KFHB - Fernandina Beach Municipal Airport (16 nm SE)
KJAX - Jacksonville International Airport (16 nm S)
09J - Jekyll Island Airport (24 nm NE)
KNRB - Mayport Naval Station (Adm David L. McDonald Field) (27 nm SE)
KCRG - Jacksonville Executive Airport at Craig (28 nm S)
 
Loc | Ops | Rwys | IFR | FBO | Links
Com | Nav | Svcs | Stats | Notes
Aerial photo
No photo
 
Airport distance calculator
Flying to Readdick Field Airport? Find the distance to fly.

From to GA36

Sunrise and sunset
Times for 20-Jan-2022
 Local
(UTC-5)
 Zulu
(UTC)
Morning civil twilight06:5911:59
Sunrise07:2512:25
Sunset17:5122:51
Evening civil twilight18:1723:17

Current date and time
Zulu (UTC)  21-Jan-2022 00:29:23
Local (UTC-5)  20-Jan-2022 19:29:23
 
METAR
KJAX 
16nm S 
202356Z 34004KT 10SM FEW050 BKN095 OVC160 18/13 A3005 RMK AO2 SLP177 T01830128 10244 20172 53015
KFHB 
16nm SE 
210015Z AUTO 00000KT 10SM OVC100 19/12 A3007 RMK AO2 T01870120
KNRB 
28nm SE 
202352Z 00000KT 10SM CLR 19/12 A3006 RMK AO2 SLP177 T01890122 10233 20189 53014
KCRG 
28nm S 
202353Z 00000KT 10SM CLR 19/12 A3005 RMK AO2 SLP177 T01940122 10244 20194 51014
KSSI 
29nm NE 
202353Z AUTO 00000KT 10SM FEW110 18/12 A3006 RMK AO2 SLP179 T01830117 10217 20183 51016
KHEG 
30nm S 
210015Z AUTO 00000KT 10SM BKN047 17/13 A3009 RMK AO2
KBQK 
32nm NE 
210015Z AUTO 36003KT 10SM SCT080 SCT100 BKN120 16/12 A3006 RMK AO2 T01620125
TAF
KJAX 
16nm S 
202359Z 2100/2124 31003KT P6SM VCSH SCT040 BKN090 OVC200 TEMPO 2103/2106 6SM -SHRA BR SCT020 BKN040 OVC090 FM210700 34006KT P6SM VCSH SCT010 BKN020 FM210900 35006KT 6SM BR VCSH BKN006 OVC010 FM211300 03009KT 5SM BR VCSH OVC006
NOTAMs
Click for the latest NOTAMs
NOTAMs are issued by the DoD/FAA and will open in a separate window not controlled by AirNav.

 

 
 

Would you like to see your business listed on this page?

 If your business provides an interesting product or service to pilots, flight crews, aircraft, or users of the Readdick Field Airport, you should consider listing it here.  To start the listing process, click on the button below
 
Add a business
 

Other Pages about Readdick Field Airport

Update a link
 
Copyright © AirNav, LLC. All rights reserved. Privacy Policy  Contact